createdAt,value
2018-03-27T00:02:16.790Z,14.57
2018-03-27T00:04:42.989Z,14.13
2018-03-27T00:07:09.314Z,14.67
2018-03-27T00:09:35.938Z,13.30
2018-03-27T00:12:02.516Z,14.83
2018-03-27T00:14:29.520Z,14.83
2018-03-27T00:16:55.643Z,15.30
2018-03-27T00:19:21.795Z,15.53
2018-03-27T00:21:48.007Z,14.90
2018-03-27T00:24:14.142Z,14.90
2018-03-27T00:26:53.291Z,17.53
2018-03-27T00:29:31.616Z,15.60
2018-03-27T00:32:09.843Z,16.50
2018-03-27T00:34:49.216Z,15.50
2018-03-27T00:37:28.240Z,15.90
2018-03-27T00:40:06.684Z,15.03
2018-03-27T00:42:39.389Z,17.87
2018-03-27T00:45:05.618Z,15.70
2018-03-27T00:47:31.895Z,16.10
2018-03-27T00:49:58.044Z,15.67
2018-03-27T00:52:24.146Z,15.50
2018-03-27T00:54:50.629Z,15.70
2018-03-27T00:57:16.922Z,16.10
2018-03-27T00:59:42.994Z,15.07
2018-03-27T01:02:09.326Z,16.40
2018-03-27T01:04:35.540Z,16.73
2018-03-27T01:07:01.824Z,15.70
2018-03-27T01:09:28.107Z,14.80
2018-03-27T01:11:54.607Z,14.87
2018-03-27T01:14:20.740Z,14.43
2018-03-27T01:16:46.926Z,15.00
2018-03-27T01:19:12.992Z,14.63
2018-03-27T01:21:39.117Z,14.70
2018-03-27T01:24:05.620Z,15.17
2018-03-27T01:26:33.336Z,15.00
2018-03-27T01:29:00.290Z,14.93
2018-03-27T01:31:26.449Z,14.63
2018-03-27T01:33:52.703Z,12.50
2018-03-27T01:36:18.899Z,11.83
2018-03-27T01:38:46.165Z,11.50
2018-03-27T01:41:12.710Z,11.40
2018-03-27T01:43:38.880Z,11.00
2018-03-27T01:46:05.084Z,11.50
2018-03-27T01:48:31.207Z,10.87
2018-03-27T01:50:57.399Z,10.83
2018-03-27T01:53:23.633Z,10.30
2018-03-27T01:55:49.894Z,10.50
2018-03-27T01:58:16.188Z,11.87
2018-03-27T02:00:43.343Z,11.03
2018-03-27T02:03:09.507Z,10.17
2018-03-27T02:05:35.933Z,9.93
2018-03-27T02:08:02.130Z,11.40
2018-03-27T02:10:28.400Z,9.77
2018-03-27T02:13:00.670Z,9.97
2018-03-27T02:15:34.036Z,11.53
2018-03-27T02:18:06.328Z,11.37
2018-03-27T02:20:38.611Z,11.20
2018-03-27T02:23:08.754Z,10.63
2018-03-27T02:25:35.188Z,10.87
2018-03-27T02:30:34.626Z,9.90
2018-03-27T02:33:00.917Z,10.97
2018-03-27T02:35:27.526Z,11.30
2018-03-27T02:37:53.934Z,10.70
2018-03-27T02:40:20.010Z,9.80
2018-03-27T02:42:46.366Z,11.07
2018-03-27T02:45:12.775Z,10.33
2018-03-27T02:47:39.386Z,10.77
2018-03-27T02:50:05.651Z,10.43
2018-03-27T02:52:31.881Z,9.53
2018-03-27T02:54:58.053Z,9.50
2018-03-27T02:57:24.330Z,10.07
2018-03-27T02:59:50.770Z,9.27
2018-03-27T03:02:16.959Z,10.70
2018-03-27T03:21:28.240Z,10.33
2018-03-27T03:23:54.580Z,9.97
2018-03-27T03:26:20.841Z,9.97
2018-03-27T03:28:47.976Z,10.67
2018-03-27T03:31:14.188Z,10.90
2018-03-27T03:33:40.416Z,9.70
2018-03-27T03:36:07.382Z,10.20
2018-03-27T03:38:33.505Z,9.73
2018-03-27T03:40:59.610Z,10.00
2018-03-27T03:43:25.798Z,10.40
2018-03-27T03:45:52.080Z,10.80
2018-03-27T03:48:18.316Z,10.20
2018-03-27T03:50:44.878Z,11.37
2018-03-27T03:53:11.489Z,10.40
2018-03-27T03:55:37.821Z,10.20
2018-03-27T03:58:05.279Z,10.00
2018-03-27T04:00:31.454Z,9.33
2018-03-27T04:02:57.588Z,11.30
2018-03-27T04:05:23.841Z,11.87
2018-03-27T04:07:50.689Z,11.80
2018-03-27T04:10:16.841Z,10.50
2018-03-27T04:12:42.906Z,12.20
2018-03-27T04:15:09.089Z,11.53
2018-03-27T04:17:35.741Z,10.90
2018-03-27T04:20:01.884Z,10.70
2018-03-27T04:22:28.018Z,10.67
2018-03-27T04:24:54.218Z,11.17
2018-03-27T04:27:20.440Z,11.40
2018-03-27T04:29:46.603Z,11.00
2018-03-27T04:32:12.935Z,12.00
2018-03-27T04:34:39.106Z,12.80
2018-03-27T04:37:05.353Z,12.20
2018-03-27T04:39:31.491Z,12.13
2018-03-27T04:41:57.776Z,12.20
2018-03-27T04:44:24.057Z,12.63
2018-03-27T04:46:50.754Z,13.03
2018-03-27T04:49:18.170Z,14.17
2018-03-27T04:51:45.498Z,13.67
2018-03-27T04:54:12.655Z,15.30
2018-03-27T04:56:38.850Z,14.40
2018-03-27T04:59:05.746Z,15.30
2018-03-27T05:01:32.847Z,16.27
2018-03-27T05:04:00.571Z,17.83
2018-03-27T05:06:26.721Z,17.30
2018-03-27T05:08:53.504Z,17.10
2018-03-27T05:11:20.584Z,18.60
2018-03-27T05:13:48.025Z,20.23
2018-03-27T05:16:14.622Z,20.45
2018-03-27T05:18:40.901Z,20.40
2018-03-27T05:21:07.081Z,19.73
2018-03-27T05:23:33.776Z,22.77
2018-03-27T05:26:02.152Z,24.02
2018-03-27T05:28:29.262Z,24.73
2018-03-27T05:30:56.048Z,23.30
2018-03-27T05:33:22.959Z,26.03
2018-03-27T05:35:50.242Z,26.60
2018-03-27T05:38:16.697Z,23.77
2018-03-27T05:40:44.532Z,24.52
2018-03-27T05:43:10.918Z,23.95
2018-03-27T05:45:38.389Z,24.23
2018-03-27T05:48:05.222Z,25.37
2018-03-27T05:50:33.445Z,21.97
2018-03-27T05:53:01.104Z,23.55
2018-03-27T05:55:28.192Z,28.13
2018-03-27T05:57:55.121Z,35.23
2018-03-27T06:00:21.391Z,30.37
2018-03-27T06:02:50.329Z,29.27
2018-03-27T06:05:16.567Z,30.53
2018-03-27T06:07:43.390Z,35.70
2018-03-27T06:10:10.280Z,29.67
2018-03-27T06:12:36.640Z,28.10
2018-03-27T06:15:03.016Z,29.53
2018-03-27T06:17:29.263Z,31.03
2018-03-27T06:19:55.500Z,28.38
2018-03-27T06:22:22.500Z,29.97
2018-03-27T06:24:49.491Z,27.50
2018-03-27T06:27:16.457Z,29.03
2018-03-27T06:29:43.401Z,31.23
2018-03-27T06:32:09.741Z,27.73
2018-03-27T06:34:36.002Z,29.17
2018-03-27T06:37:02.492Z,27.47
2018-03-27T06:39:29.067Z,29.92
2018-03-27T06:41:56.803Z,27.00
2018-03-27T06:44:23.737Z,25.23
2018-03-27T06:46:50.953Z,27.37
2018-03-27T06:49:17.341Z,27.47
2018-03-27T06:51:43.893Z,25.05
2018-03-27T06:54:10.152Z,26.43
2018-03-27T06:56:36.429Z,26.83
2018-03-27T06:59:04.814Z,27.00
2018-03-27T07:01:31.424Z,27.00
2018-03-27T07:03:57.661Z,28.00
2018-03-27T07:06:27.287Z,28.58
2018-03-27T07:08:53.494Z,25.80
2018-03-27T07:11:22.064Z,26.73
2018-03-27T07:13:54.460Z,24.73
2018-03-27T07:16:21.074Z,27.17
2018-03-27T07:18:49.021Z,24.92
2018-03-27T07:21:16.554Z,24.57
2018-03-27T07:23:43.180Z,25.80
2018-03-27T07:26:09.488Z,23.93
2018-03-27T07:28:35.707Z,24.20
2018-03-27T07:31:01.923Z,26.30
2018-03-27T07:33:28.913Z,26.00
2018-03-27T07:35:55.305Z,26.70
2018-03-27T07:38:23.027Z,26.90
2018-03-27T07:40:49.395Z,27.90
2018-03-27T07:43:17.276Z,28.90
2018-03-27T07:45:44.206Z,30.50
2018-03-27T07:48:10.832Z,31.40
2018-03-27T07:50:37.050Z,30.33
2018-03-27T07:53:04.655Z,30.00
2018-03-27T07:55:31.555Z,31.67
2018-03-27T07:57:59.782Z,29.50
2018-03-27T08:00:27.023Z,29.83
2018-03-27T08:02:53.156Z,27.50
2018-03-27T08:05:20.308Z,30.67
2018-03-27T08:07:47.732Z,27.00
2018-03-27T08:10:14.714Z,27.27
2018-03-27T08:12:40.967Z,26.10
2018-03-27T08:15:08.629Z,25.63
2018-03-27T08:17:39.026Z,25.30
2018-03-27T08:20:06.130Z,27.67
2018-03-27T08:22:32.354Z,24.80
2018-03-27T08:24:58.824Z,25.70
2018-03-27T08:27:27.118Z,22.80
2018-03-27T08:29:54.022Z,24.50
2018-03-27T08:32:21.315Z,23.63
2018-03-27T08:34:49.725Z,23.20
2018-03-27T08:37:17.544Z,24.27
2018-03-27T08:39:44.448Z,24.50
2018-03-27T08:42:11.028Z,24.43
2018-03-27T08:44:37.172Z,23.17
2018-03-27T08:47:07.605Z,23.03
2018-03-27T08:49:35.631Z,27.00
2018-03-27T08:52:02.065Z,22.63
2018-03-27T08:57:02.779Z,23.23
2018-03-27T08:59:29.065Z,22.70
2018-03-27T09:01:56.132Z,22.90
2018-03-27T09:04:22.946Z,21.33
2018-03-27T09:06:50.027Z,22.50
2018-03-27T09:09:16.384Z,20.40
2018-03-27T09:11:43.016Z,19.80
2018-03-27T09:14:10.120Z,20.00
2018-03-27T09:16:37.200Z,20.90
2018-03-27T09:19:03.386Z,21.87
2018-03-27T09:21:30.439Z,22.17
2018-03-27T09:23:57.505Z,21.43
2018-03-27T09:26:23.831Z,21.83
2018-03-27T09:28:50.102Z,23.07
2018-03-27T09:31:17.240Z,24.47
2018-03-27T09:33:43.462Z,24.10
2018-03-27T09:36:10.680Z,24.60
2018-03-27T09:38:36.978Z,22.80
2018-03-27T09:41:03.965Z,23.27
2018-03-27T09:43:32.216Z,22.97
2018-03-27T09:46:00.697Z,23.50
2018-03-27T09:48:26.848Z,21.87
2018-03-27T09:50:53.214Z,21.83
2018-03-27T09:53:19.894Z,21.43
2018-03-27T09:55:47.160Z,19.00
2018-03-27T09:58:13.840Z,19.50
2018-03-27T10:00:46.294Z,18.20
2018-03-27T10:03:13.222Z,19.90
2018-03-27T10:05:39.344Z,19.67
2018-03-27T10:08:06.696Z,14.37
2018-03-27T10:10:32.869Z,15.43
2018-03-27T10:12:59.910Z,14.80
2018-03-27T10:15:26.608Z,14.63
2018-03-27T10:17:54.173Z,14.00
2018-03-27T10:20:20.347Z,13.67
2018-03-27T10:22:46.488Z,13.80
2018-03-27T10:25:13.581Z,13.43
2018-03-27T10:27:40.518Z,16.30
2018-03-27T10:30:07.869Z,14.67
2018-03-27T10:32:34.101Z,15.13
2018-03-27T10:35:00.841Z,17.00
2018-03-27T10:37:27.448Z,18.33
2018-03-27T10:39:55.679Z,16.30
2018-03-27T10:42:22.366Z,18.07
2018-03-27T10:44:48.560Z,17.70
2018-03-27T10:47:14.751Z,19.80
2018-03-27T10:49:41.291Z,18.43
2018-03-27T10:52:08.594Z,18.03
2018-03-27T10:54:35.598Z,19.30
2018-03-27T10:57:02.261Z,20.77
2018-03-27T10:59:28.437Z,20.33
2018-03-27T11:01:56.689Z,20.37
2018-03-27T11:04:23.550Z,19.43
2018-03-27T11:06:49.789Z,19.87
2018-03-27T11:09:18.093Z,18.53
2018-03-27T11:11:44.711Z,19.10
2018-03-27T11:14:11.303Z,19.37
2018-03-27T11:16:38.660Z,19.90
2018-03-27T11:19:06.039Z,20.03
2018-03-27T11:21:32.329Z,19.80
2018-03-27T11:23:59.466Z,20.07
2018-03-27T11:26:28.598Z,20.80
2018-03-27T11:28:57.261Z,22.63
2018-03-27T11:31:23.451Z,22.47
2018-03-27T11:33:50.118Z,21.93
2018-03-27T11:36:16.327Z,21.67
2018-03-27T11:38:42.347Z,24.10
2018-03-27T11:41:09.365Z,21.23
2018-03-27T11:43:35.514Z,24.53
2018-03-27T11:46:01.734Z,24.40
2018-03-27T11:48:29.518Z,26.07
2018-03-27T11:50:55.647Z,25.20
2018-03-27T11:53:22.180Z,24.77
2018-03-27T11:55:49.347Z,25.73
2018-03-27T11:58:16.619Z,24.33
2018-03-27T12:00:43.382Z,24.03
2018-03-27T12:03:10.006Z,24.00
2018-03-27T12:05:36.192Z,24.47
2018-03-27T12:08:05.588Z,24.20
2018-03-27T12:10:32.539Z,24.97
2018-03-27T12:12:58.714Z,23.00
2018-03-27T12:15:25.088Z,23.10
2018-03-27T12:17:51.568Z,21.17
2018-03-27T12:20:18.553Z,21.00
2018-03-27T12:22:44.689Z,21.70
2018-03-27T12:25:11.038Z,19.93
2018-03-27T12:27:37.151Z,21.23
2018-03-27T12:30:05.860Z,19.70
2018-03-27T12:32:34.239Z,19.60
2018-03-27T12:35:00.399Z,20.03
2018-03-27T12:37:27.900Z,19.73
2018-03-27T12:39:55.068Z,20.30
2018-03-27T12:42:21.148Z,18.70
2018-03-27T12:44:47.451Z,20.77
2018-03-27T12:47:14.674Z,19.03
2018-03-27T12:49:41.623Z,20.80
2018-03-27T12:52:07.959Z,22.67
2018-03-27T12:54:34.585Z,20.10
2018-03-27T12:57:01.429Z,21.67
2018-03-27T12:59:28.299Z,19.60
2018-03-27T13:01:54.491Z,19.13
2018-03-27T13:04:21.032Z,20.23
2018-03-27T13:06:48.987Z,20.03
2018-03-27T13:09:18.428Z,21.10
2018-03-27T13:11:45.375Z,20.70
2018-03-27T13:14:11.717Z,20.30
2018-03-27T13:16:37.953Z,21.07
2018-03-27T13:19:04.338Z,20.10
2018-03-27T13:21:31.540Z,19.80
2018-03-27T13:23:58.642Z,19.97
2018-03-27T13:26:24.966Z,18.87
2018-03-27T13:28:51.412Z,21.03
2018-03-27T13:31:17.865Z,19.40
2018-03-27T13:33:45.426Z,18.27
2018-03-27T13:36:11.681Z,21.00
2018-03-27T13:38:38.067Z,20.20
2018-03-27T13:41:06.246Z,21.30
2018-03-27T13:43:33.129Z,21.50
2018-03-27T13:46:00.494Z,19.93
2018-03-27T13:48:28.238Z,21.13
2018-03-27T13:50:54.304Z,18.80
2018-03-27T13:53:21.170Z,19.63
2018-03-27T13:55:47.265Z,20.80
2018-03-27T13:58:14.630Z,20.50
2018-03-27T14:00:41.433Z,19.60
2018-03-27T14:03:08.108Z,17.50
2018-03-27T14:05:34.502Z,21.00
2018-03-27T14:08:00.641Z,20.07
2018-03-27T14:10:29.974Z,23.83
2018-03-27T14:12:58.237Z,21.07
2018-03-27T14:15:24.502Z,19.80
2018-03-27T14:17:50.574Z,19.83
2018-03-27T14:20:18.046Z,21.50
2018-03-27T14:22:44.355Z,22.70
2018-03-27T14:25:12.788Z,21.60
2018-03-27T14:27:39.016Z,20.80
2018-03-27T14:30:05.865Z,19.67
2018-03-27T14:32:33.568Z,20.37
2018-03-27T14:34:59.857Z,21.00
2018-03-27T14:37:27.517Z,21.87
2018-03-27T14:39:56.055Z,22.10
2018-03-27T14:42:23.463Z,23.60
2018-03-27T14:44:49.878Z,20.03
2018-03-27T14:47:17.183Z,22.50
2018-03-27T14:49:44.461Z,22.70
2018-03-27T14:52:11.191Z,23.03
2018-03-27T14:54:38.467Z,24.07
2018-03-27T14:57:05.157Z,23.63
2018-03-27T14:59:33.192Z,22.50
2018-03-27T15:02:00.650Z,22.10
2018-03-27T15:04:27.814Z,23.40
2018-03-27T15:06:54.036Z,24.57
2018-03-27T15:09:21.377Z,21.90
2018-03-27T15:11:48.969Z,23.27
2018-03-27T15:14:15.447Z,23.27
2018-03-27T15:16:41.931Z,23.47
2018-03-27T15:19:08.045Z,23.33
2018-03-27T15:21:34.241Z,23.07
2018-03-27T15:24:05.441Z,23.40
2018-03-27T15:26:31.812Z,21.47
2018-03-27T15:28:58.065Z,23.07
2018-03-27T15:31:26.306Z,22.73
2018-03-27T15:33:53.372Z,22.07
2018-03-27T15:36:20.616Z,24.13
2018-03-27T15:38:46.895Z,24.90
2018-03-27T15:41:13.564Z,23.27
2018-03-27T15:43:39.846Z,33.43
2018-03-27T15:46:06.533Z,22.50
2018-03-27T15:48:34.122Z,26.00
2018-03-27T15:51:03.760Z,22.97
2018-03-27T15:53:31.588Z,24.53
2018-03-27T15:55:57.850Z,26.00
2018-03-27T15:58:24.805Z,23.17
2018-03-27T16:00:50.978Z,24.57
2018-03-27T16:03:17.841Z,24.00
2018-03-27T16:05:44.301Z,25.10
2018-03-27T16:08:11.028Z,26.70
2018-03-27T16:10:38.033Z,24.50
2018-03-27T16:13:06.274Z,24.70
2018-03-27T16:15:32.755Z,26.23
2018-03-27T16:17:59.193Z,25.13
2018-03-27T16:23:01.380Z,25.73
2018-03-27T16:25:28.483Z,27.07
2018-03-27T16:27:54.828Z,27.73
2018-03-27T16:30:21.662Z,26.60
2018-03-27T16:32:49.009Z,26.37
2018-03-27T16:35:15.801Z,26.73
2018-03-27T16:37:41.968Z,28.73
2018-03-27T16:40:09.136Z,28.27
2018-03-27T16:42:36.486Z,27.57
2018-03-27T16:45:02.897Z,25.90
2018-03-27T16:47:29.075Z,28.03
2018-03-27T16:49:55.612Z,28.07
2018-03-27T16:52:23.529Z,26.70
2018-03-27T16:54:50.501Z,26.80
2018-03-27T16:57:16.934Z,28.80
2018-03-27T16:59:43.491Z,26.23
2018-03-27T17:02:09.843Z,28.23
2018-03-27T17:04:36.220Z,26.20
2018-03-27T17:07:03.002Z,26.43
2018-03-27T17:09:50.829Z,25.50
2018-03-27T17:12:17.422Z,27.57
2018-03-27T17:14:44.258Z,27.27
2018-03-27T17:17:12.635Z,25.53
2018-03-27T17:19:39.044Z,28.50
2018-03-27T17:22:07.001Z,26.10
2018-03-27T17:24:33.454Z,27.30
2018-03-27T17:27:01.287Z,28.43
2018-03-27T17:29:27.923Z,26.70
2018-03-27T17:31:54.143Z,26.70
2018-03-27T17:34:21.208Z,27.13
2018-03-27T17:36:48.190Z,29.23
2018-03-27T17:39:15.107Z,27.17
2018-03-27T17:41:42.053Z,26.23
2018-03-27T17:44:08.713Z,25.53
2018-03-27T17:46:34.996Z,27.07
2018-03-27T17:49:02.556Z,26.90
2018-03-27T17:51:29.682Z,28.00
2018-03-27T17:53:55.920Z,29.43
2018-03-27T17:56:22.363Z,27.30
2018-03-27T17:58:48.947Z,28.80
2018-03-27T18:01:16.205Z,27.90
2018-03-27T18:03:42.581Z,27.00
2018-03-27T18:06:11.376Z,26.33
2018-03-27T18:08:37.658Z,26.20
2018-03-27T18:11:04.645Z,27.50
2018-03-27T18:13:31.348Z,27.50
2018-03-27T18:15:57.798Z,26.90
2018-03-27T18:18:25.199Z,27.40
2018-03-27T18:20:51.361Z,26.60
2018-03-27T18:23:17.518Z,26.60
2018-03-27T18:25:44.731Z,25.63
2018-03-27T18:28:12.028Z,27.20
2018-03-27T18:30:39.373Z,27.00
2018-03-27T18:33:05.531Z,23.80
2018-03-27T18:35:32.278Z,25.33
2018-03-27T18:37:59.654Z,25.57
2018-03-27T18:40:27.179Z,24.70
2018-03-27T18:42:53.511Z,23.97
2018-03-27T18:45:19.889Z,25.67
2018-03-27T18:47:46.190Z,25.83
2018-03-27T18:50:15.654Z,27.33
2018-03-27T18:52:42.354Z,37.23
2018-03-27T18:55:09.560Z,26.70
2018-03-27T18:57:37.171Z,26.13
2018-03-27T19:00:04.233Z,26.20
2018-03-27T19:02:30.793Z,28.53
2018-03-27T19:04:57.431Z,27.20
2018-03-27T19:07:24.714Z,27.50
2018-03-27T19:09:52.033Z,28.03
2018-03-27T19:12:18.333Z,28.17
2018-03-27T19:14:44.591Z,27.73
2018-03-27T19:17:11.303Z,25.70
2018-03-27T19:19:38.077Z,30.10
2018-03-27T19:22:04.165Z,28.07
2018-03-27T19:24:31.337Z,29.00
2018-03-27T19:26:57.514Z,27.00
2018-03-27T19:29:24.501Z,30.30
2018-03-27T19:31:51.108Z,36.53
2018-03-27T19:34:19.871Z,37.37
2018-03-27T19:36:46.146Z,35.43
2018-03-27T19:39:14.152Z,34.70
2018-03-27T19:41:41.455Z,31.53
2018-03-27T19:44:08.769Z,31.70
2018-03-27T19:46:35.581Z,32.30
2018-03-27T19:49:02.722Z,33.40
2018-03-27T19:51:29.197Z,30.50
2018-03-27T19:53:56.796Z,31.10
2018-03-27T19:56:23.422Z,30.57
2018-03-27T20:01:26.671Z,32.80
2018-03-27T20:03:52.810Z,31.30
2018-03-27T20:06:19.124Z,31.73
2018-03-27T20:08:45.456Z,34.93
2018-03-27T20:11:11.546Z,30.63
2018-03-27T20:13:40.283Z,33.23
2018-03-27T20:16:06.595Z,29.87
2018-03-27T20:18:32.830Z,29.60
2018-03-27T20:20:59.433Z,28.83
2018-03-27T20:23:26.548Z,27.67
2018-03-27T20:25:52.754Z,28.47
2018-03-27T20:28:21.896Z,29.87
2018-03-27T20:30:49.583Z,33.27
2018-03-27T20:33:24.017Z,29.40
2018-03-27T20:35:50.360Z,27.87
2018-03-27T20:38:19.001Z,35.47
2018-03-27T20:40:48.561Z,38.17
2018-03-27T20:43:15.223Z,30.50
2018-03-27T20:45:42.109Z,30.03
2018-03-27T20:48:08.361Z,35.23
2018-03-27T20:50:36.645Z,33.53
2018-03-27T20:53:02.914Z,30.80
2018-03-27T20:55:29.197Z,31.80
2018-03-27T20:57:55.580Z,30.00
2018-03-27T21:00:22.116Z,31.10
2018-03-27T21:02:48.277Z,30.90
2018-03-27T21:05:15.594Z,30.50
2018-03-27T21:07:41.827Z,29.30
2018-03-27T21:10:08.714Z,29.63
2018-03-27T21:12:34.863Z,31.33
2018-03-27T21:15:02.889Z,30.37
2018-03-27T21:17:29.757Z,29.67
2018-03-27T21:19:55.869Z,29.67
2018-03-27T21:22:22.837Z,28.50
2018-03-27T21:24:49.181Z,30.63
2018-03-27T21:27:16.859Z,29.73
2018-03-27T21:29:43.170Z,29.60
2018-03-27T21:32:11.418Z,31.10
2018-03-27T21:34:37.596Z,30.40
2018-03-27T21:37:03.953Z,31.33
2018-03-27T21:39:31.145Z,29.83
2018-03-27T21:41:57.875Z,34.40
2018-03-27T21:44:24.008Z,34.53
2018-03-27T21:46:51.061Z,35.70
2018-03-27T21:49:18.211Z,34.27
2018-03-27T21:51:44.435Z,31.00
2018-03-27T21:54:10.712Z,32.30
2018-03-27T21:56:36.893Z,33.07
2018-03-27T21:59:04.775Z,30.50
2018-03-27T22:01:30.974Z,32.17
2018-03-27T22:03:57.461Z,32.77
2018-03-27T22:06:24.571Z,34.67
2018-03-27T22:08:50.693Z,28.13
2018-03-27T22:11:16.906Z,28.10
2018-03-27T22:13:43.344Z,26.60
2018-03-27T22:16:11.281Z,27.07
2018-03-27T22:18:37.439Z,25.97
2018-03-27T22:21:04.103Z,28.67
2018-03-27T22:23:30.494Z,27.27
2018-03-27T22:25:57.140Z,27.77
2018-03-27T22:28:23.292Z,30.03
2018-03-27T22:30:51.393Z,29.00
2018-03-27T22:33:17.576Z,30.60
2018-03-27T22:35:43.796Z,29.57
2018-03-27T22:38:09.912Z,28.70
2018-03-27T22:40:36.075Z,28.77
2018-03-27T22:43:03.346Z,29.20
2018-03-27T22:45:29.633Z,29.27
2018-03-27T22:47:55.904Z,29.07
2018-03-27T22:50:22.028Z,26.80
2018-03-27T22:52:48.187Z,28.53
2018-03-27T22:55:15.270Z,27.97
2018-03-27T22:57:41.554Z,32.30
2018-03-27T23:00:07.629Z,30.87
2018-03-27T23:02:34.671Z,28.07
2018-03-27T23:05:04.705Z,29.93
2018-03-27T23:07:31.657Z,29.67
2018-03-27T23:09:58.657Z,32.30
2018-03-27T23:12:24.880Z,28.90
2018-03-27T23:14:51.282Z,32.07
2018-03-27T23:17:18.556Z,28.70
2018-03-27T23:19:44.734Z,31.13
2018-03-27T23:22:10.897Z,30.10
2018-03-27T23:24:37.102Z,33.23
2018-03-27T23:27:03.578Z,32.77
2018-03-27T23:29:30.178Z,33.37
2018-03-27T23:31:56.306Z,31.40
2018-03-27T23:34:22.529Z,33.70
2018-03-27T23:36:48.694Z,30.30
2018-03-27T23:39:14.993Z,29.67
2018-03-27T23:41:41.259Z,30.87
2018-03-27T23:44:07.572Z,32.87
2018-03-27T23:46:33.814Z,33.07
2018-03-27T23:49:01.301Z,33.27
2018-03-27T23:51:28.400Z,34.77
2018-03-27T23:53:54.606Z,32.87
2018-03-27T23:56:20.842Z,32.00
2018-03-27T23:58:47.105Z,31.83
